Chester, Iowa
Current Conditions -  °F | °C
As of 2:15 AM on Monday 24 Nov 2014 (Local Time) from KFKA Reporting Station
Moderate Snow Moderate Snow  
Wind Chill: 20°   Ceiling: 700
Heat Index: 31°   Visibility: 0.75mi
Dew Point: 30°   Wind: 16mph
Humidity: 96%   Direction: 310°NW
Pressure: 29.23"   Gusts: 28mph
Location:  43.49°N, 92.36°W
Report Text: KFKA 240815Z AUTO 31014G24KT 3/4SM SN BKN007 M01/M01 A2923 RMK AO2 T10061011
Loading
Personal Weather Stations






























Interactive Weather Map New forecast layout! Learn more

10-Day Weather Forecast

Advertisements
Track Severe Weather on mobile